createdAt,value
2018-08-22T00:02:25.263Z,14.70
2018-08-22T00:04:54.734Z,19.83
2018-08-22T00:07:24.361Z,11.23
2018-08-22T00:09:54.020Z,15.83
2018-08-22T00:12:23.485Z,15.60
2018-08-22T00:14:53.029Z,17.13
2018-08-22T00:17:22.449Z,18.77
2018-08-22T00:19:52.127Z,20.20
2018-08-22T00:22:21.760Z,17.30
2018-08-22T00:24:51.163Z,18.60
2018-08-22T00:27:20.520Z,19.63
2018-08-22T00:29:50.026Z,19.83
2018-08-22T00:32:19.517Z,15.57
2018-08-22T00:34:49.058Z,15.43
2018-08-22T00:37:19.643Z,19.00
2018-08-22T00:39:49.394Z,13.80
2018-08-22T00:42:18.812Z,18.43
2018-08-22T00:44:48.273Z,15.30
2018-08-22T00:47:17.690Z,15.53
2018-08-22T00:49:47.054Z,16.17
2018-08-22T00:52:16.717Z,15.77
2018-08-22T00:54:46.191Z,17.33
2018-08-22T00:57:15.748Z,18.37
2018-08-22T00:59:45.355Z,15.63
2018-08-22T01:02:14.857Z,12.10
2018-08-22T01:04:44.403Z,15.27
2018-08-22T01:07:14.035Z,15.13
2018-08-22T01:09:43.570Z,14.30
2018-08-22T01:12:12.980Z,12.97
2018-08-22T01:14:42.423Z,16.77
2018-08-22T01:17:11.836Z,16.67
2018-08-22T01:19:41.264Z,12.63
2018-08-22T01:22:10.709Z,13.93
2018-08-22T01:24:40.268Z,12.63
2018-08-22T01:27:14.352Z,12.47
2018-08-22T01:29:43.713Z,18.07
2018-08-22T01:32:13.039Z,11.80
2018-08-22T01:34:42.520Z,11.57
2018-08-22T01:37:11.952Z,12.00
2018-08-22T01:39:41.705Z,15.27
2018-08-22T01:42:11.135Z,12.07
2018-08-22T01:44:40.490Z,16.60
2018-08-22T01:47:09.858Z,15.13
2018-08-22T01:49:39.395Z,15.50
2018-08-22T01:52:08.830Z,15.10
2018-08-22T01:54:38.313Z,11.47
2018-08-22T01:57:07.723Z,13.30
2018-08-22T01:59:37.030Z,11.13
2018-08-22T02:02:06.503Z,12.93
2018-08-22T02:04:35.896Z,11.17
2018-08-22T02:07:05.422Z,11.43
2018-08-22T02:09:34.817Z,13.83
2018-08-22T02:12:04.248Z,14.13
2018-08-22T02:14:33.659Z,12.20
2018-08-22T02:17:03.058Z,10.67
2018-08-22T02:19:32.369Z,12.00
2018-08-22T02:22:01.702Z,11.40
2018-08-22T02:24:30.988Z,11.13
2018-08-22T02:27:00.633Z,13.40
2018-08-22T02:29:30.077Z,16.10
2018-08-22T02:31:59.492Z,13.60
2018-08-22T02:34:29.037Z,15.93
2018-08-22T02:36:58.638Z,15.37
2018-08-22T02:39:28.560Z,12.90
2018-08-22T02:41:57.937Z,15.23
2018-08-22T02:44:27.612Z,12.37
2018-08-22T02:46:56.953Z,12.20
2018-08-22T02:49:26.396Z,17.80
2018-08-22T02:51:55.764Z,17.70
2018-08-22T02:54:26.572Z,11.47
2018-08-22T02:56:55.998Z,13.77
2018-08-22T02:59:25.531Z,14.63
2018-08-22T03:01:55.005Z,12.80
2018-08-22T03:04:24.386Z,15.47
2018-08-22T03:06:53.702Z,15.70
2018-08-22T03:09:23.164Z,13.83
2018-08-22T03:11:52.443Z,12.30
2018-08-22T03:14:21.737Z,15.00
2018-08-22T03:16:51.029Z,15.70
2018-08-22T03:19:20.771Z,12.77
2018-08-22T03:21:50.191Z,13.43
2018-08-22T03:24:19.646Z,10.83
2018-08-22T03:26:49.025Z,12.73
2018-08-22T03:29:18.482Z,10.30
2018-08-22T03:31:48.027Z,13.40
2018-08-22T03:34:17.526Z,13.43
2018-08-22T03:36:47.169Z,12.30
2018-08-22T03:39:16.644Z,13.43
2018-08-22T03:41:46.099Z,13.87
2018-08-22T03:44:15.788Z,26.57
2018-08-22T03:46:45.395Z,18.97
2018-08-22T03:49:14.968Z,18.20
2018-08-22T03:51:44.500Z,12.70
2018-08-22T03:54:13.963Z,18.80
2018-08-22T03:56:43.597Z,12.77
2018-08-22T03:59:13.084Z,13.30
2018-08-22T04:01:42.611Z,12.57
2018-08-22T04:04:11.948Z,24.10
2018-08-22T04:06:41.204Z,13.10
2018-08-22T04:09:10.694Z,17.93
2018-08-22T04:11:40.148Z,17.20
2018-08-22T04:14:09.636Z,16.57
2018-08-22T04:16:38.981Z,14.53
2018-08-22T04:19:08.429Z,14.07
2018-08-22T04:21:37.825Z,15.00
2018-08-22T04:24:07.224Z,14.67
2018-08-22T04:26:36.657Z,17.43
2018-08-22T04:29:06.724Z,14.77
2018-08-22T04:31:36.308Z,13.33
2018-08-22T04:34:05.843Z,14.30
2018-08-22T04:36:35.341Z,13.33
2018-08-22T04:39:06.509Z,14.17
2018-08-22T04:41:35.831Z,16.17
2018-08-22T04:44:05.526Z,13.33
2018-08-22T04:46:35.081Z,12.93
2018-08-22T04:49:04.633Z,18.20
2018-08-22T04:51:34.137Z,14.87
2018-08-22T04:54:03.673Z,20.53
2018-08-22T04:56:33.608Z,27.17
2018-08-22T04:59:03.175Z,15.33
2018-08-22T05:01:32.749Z,14.60
2018-08-22T05:04:02.257Z,16.97
2018-08-22T05:06:31.672Z,13.87
2018-08-22T05:09:01.220Z,14.07
2018-08-22T05:11:30.778Z,12.20
2018-08-22T05:14:00.835Z,13.73
2018-08-22T05:16:30.479Z,13.90
2018-08-22T05:19:00.014Z,13.77
2018-08-22T05:21:29.480Z,13.47
2018-08-22T05:23:59.218Z,16.23
2018-08-22T05:26:29.010Z,15.93
2018-08-22T05:28:58.497Z,11.53
2018-08-22T05:31:27.940Z,13.53
2018-08-22T05:33:57.587Z,18.20
2018-08-22T05:36:27.687Z,20.80
2018-08-22T05:38:57.164Z,15.67
2018-08-22T05:41:26.619Z,13.17
2018-08-22T05:43:56.116Z,17.87
2018-08-22T05:46:25.582Z,18.17
2018-08-22T05:48:55.151Z,15.10
2018-08-22T05:51:24.776Z,20.20
2018-08-22T05:53:54.202Z,17.47
2018-08-22T05:56:23.705Z,15.33
2018-08-22T05:58:54.258Z,16.13
2018-08-22T06:01:23.589Z,14.47
2018-08-22T06:03:53.007Z,13.67
2018-08-22T06:06:25.418Z,34.50
2018-08-22T06:08:55.217Z,14.50
2018-08-22T06:11:25.341Z,17.33
2018-08-22T06:13:54.855Z,13.87
2018-08-22T06:16:24.273Z,22.47
2018-08-22T06:18:53.701Z,22.20
2018-08-22T06:21:23.192Z,15.97
2018-08-22T06:23:52.913Z,20.57
2018-08-22T06:26:22.464Z,17.27
2018-08-22T06:28:51.921Z,16.00
2018-08-22T06:31:21.410Z,15.53
2018-08-22T06:33:50.881Z,13.37
2018-08-22T06:36:20.640Z,23.90
2018-08-22T06:38:50.083Z,8.80
2018-08-22T06:41:19.566Z,15.67
2018-08-22T06:43:48.914Z,14.63
2018-08-22T06:46:18.270Z,13.03
2018-08-22T06:48:47.997Z,10.57
2018-08-22T06:51:17.424Z,15.13
2018-08-22T06:53:50.282Z,13.60
2018-08-22T06:56:19.609Z,14.83
2018-08-22T06:58:48.943Z,10.97
2018-08-22T07:01:18.347Z,14.03
2018-08-22T07:03:47.997Z,8.47
2018-08-22T07:06:17.511Z,9.07
2018-08-22T07:08:47.088Z,11.10
2018-08-22T07:11:16.589Z,10.93
2018-08-22T07:13:46.738Z,15.93
2018-08-22T07:16:16.236Z,10.90
2018-08-22T07:18:45.600Z,9.07
2018-08-22T07:21:15.026Z,8.53
2018-08-22T07:23:44.374Z,10.73
2018-08-22T07:26:13.840Z,15.03
2018-08-22T07:28:43.045Z,9.20
2018-08-22T07:31:12.450Z,13.50
2018-08-22T07:33:42.096Z,11.23
2018-08-22T07:36:11.536Z,7.50
2018-08-22T07:38:41.711Z,12.00
2018-08-22T07:41:11.774Z,11.80
2018-08-22T07:43:41.264Z,11.47
2018-08-22T07:46:10.686Z,9.57
2018-08-22T07:48:40.039Z,10.23
2018-08-22T07:51:09.701Z,13.20
2018-08-22T07:53:39.200Z,13.53
2018-08-22T07:56:08.810Z,11.87
2018-08-22T07:58:38.394Z,9.17
2018-08-22T08:01:07.833Z,9.23
2018-08-22T08:03:37.403Z,7.83
2018-08-22T08:06:07.202Z,7.37
2018-08-22T08:08:36.659Z,6.60
2018-08-22T08:11:06.177Z,8.83
2018-08-22T08:13:35.538Z,7.00
2018-08-22T08:16:04.789Z,10.67
2018-08-22T08:18:35.030Z,10.93
2018-08-22T08:21:04.256Z,10.00
2018-08-22T08:23:33.726Z,12.07
2018-08-22T08:26:03.203Z,7.63
2018-08-22T08:28:33.198Z,8.47
2018-08-22T08:31:02.872Z,10.20
2018-08-22T08:33:32.299Z,7.00
2018-08-22T08:36:01.750Z,7.20
2018-08-22T08:38:31.265Z,9.50
2018-08-22T08:41:00.761Z,13.03
2018-08-22T08:43:30.643Z,8.57
2018-08-22T08:46:00.350Z,12.30
2018-08-22T08:48:29.831Z,11.83
2018-08-22T08:50:59.363Z,14.33
2018-08-22T08:53:28.765Z,17.13
2018-08-22T08:55:58.217Z,9.90
2018-08-22T08:58:27.734Z,7.37
2018-08-22T09:00:57.318Z,10.03
2018-08-22T09:03:27.415Z,13.20
2018-08-22T09:05:56.855Z,10.80
2018-08-22T09:08:26.600Z,11.30
2018-08-22T09:10:56.308Z,9.43
2018-08-22T09:13:25.911Z,7.03
2018-08-22T09:15:55.336Z,12.40
2018-08-22T09:18:25.116Z,10.10
2018-08-22T09:20:54.797Z,10.70
2018-08-22T09:23:24.418Z,9.77
2018-08-22T09:25:53.920Z,12.63
2018-08-22T09:28:23.588Z,12.63
2018-08-22T09:30:53.056Z,9.97
2018-08-22T09:33:22.614Z,8.00
2018-08-22T09:35:52.469Z,10.73
2018-08-22T09:38:22.573Z,12.97
2018-08-22T09:40:52.229Z,7.10
2018-08-22T09:43:21.909Z,10.70
2018-08-22T09:45:55.373Z,6.23
2018-08-22T09:48:24.945Z,6.37
2018-08-22T09:50:54.568Z,8.03
2018-08-22T09:53:24.030Z,7.13
2018-08-22T09:55:53.392Z,7.10
2018-08-22T09:58:22.789Z,11.00
2018-08-22T10:00:57.971Z,16.53
2018-08-22T10:03:27.740Z,12.57
2018-08-22T10:05:57.308Z,14.30
2018-08-22T10:08:26.858Z,6.47
2018-08-22T10:10:56.232Z,5.83
2018-08-22T10:13:25.756Z,6.63
2018-08-22T10:15:55.096Z,8.27
2018-08-22T10:18:24.606Z,10.30
2018-08-22T10:20:54.146Z,11.77
2018-08-22T10:23:23.633Z,6.63
2018-08-22T10:25:53.557Z,6.97
2018-08-22T10:28:23.400Z,7.60
2018-08-22T10:30:52.994Z,5.63
2018-08-22T10:33:22.591Z,10.47
2018-08-22T10:35:52.055Z,10.37
2018-08-22T10:38:21.445Z,10.53
2018-08-22T10:40:51.128Z,5.17
2018-08-22T10:43:20.568Z,4.67
2018-08-22T10:45:50.608Z,5.57
2018-08-22T10:48:20.395Z,6.70
2018-08-22T10:50:49.986Z,6.53
2018-08-22T10:53:19.549Z,7.40
2018-08-22T10:55:49.071Z,5.27
2018-08-22T10:58:18.775Z,5.20
2018-08-22T11:00:48.543Z,7.17
2018-08-22T11:03:18.346Z,11.97
2018-08-22T11:05:47.879Z,12.00
2018-08-22T11:08:17.333Z,8.87
2018-08-22T11:10:46.991Z,5.20
2018-08-22T11:13:16.636Z,6.50
2018-08-22T11:15:46.189Z,9.37
2018-08-22T11:18:15.942Z,5.37
2018-08-22T11:20:47.456Z,6.83
2018-08-22T11:23:29.209Z,10.53
2018-08-22T11:26:10.050Z,6.70
2018-08-22T11:28:50.846Z,8.30
2018-08-22T11:31:31.280Z,8.00
2018-08-22T11:34:11.536Z,9.13
2018-08-22T11:36:43.723Z,14.40
2018-08-22T11:39:13.615Z,10.47
2018-08-22T11:41:43.143Z,17.27
2018-08-22T11:44:12.717Z,7.90
2018-08-22T11:46:42.395Z,14.83
2018-08-22T11:49:11.995Z,4.87
2018-08-22T11:51:41.543Z,6.63
2018-08-22T11:54:11.231Z,6.80
2018-08-22T11:56:41.034Z,5.43
2018-08-22T11:59:10.695Z,5.67
2018-08-22T12:01:39.962Z,6.87
2018-08-22T12:04:10.454Z,7.70
2018-08-22T12:06:40.327Z,8.30
2018-08-22T12:09:11.776Z,5.13
2018-08-22T12:11:42.003Z,8.77
2018-08-22T12:14:11.798Z,5.67
2018-08-22T12:16:41.861Z,6.17
2018-08-22T12:19:12.178Z,5.03
2018-08-22T12:21:42.591Z,9.73
2018-08-22T12:24:13.728Z,6.97
2018-08-22T12:26:43.932Z,5.83
2018-08-22T12:29:13.531Z,8.90
2018-08-22T12:31:43.075Z,6.60
2018-08-22T12:34:12.621Z,23.67
2018-08-22T12:36:42.081Z,7.73
2018-08-22T12:39:11.589Z,7.13
2018-08-22T12:41:41.069Z,6.50
2018-08-22T12:44:10.550Z,13.97
2018-08-22T12:46:40.171Z,6.80
2018-08-22T12:49:10.010Z,6.30
2018-08-22T12:51:40.029Z,8.90
2018-08-22T12:54:09.546Z,8.97
2018-08-22T12:56:39.135Z,6.23
2018-08-22T12:59:08.939Z,6.50
2018-08-22T13:01:38.707Z,7.67
2018-08-22T13:04:08.616Z,8.97
2018-08-22T13:06:38.454Z,6.00
2018-08-22T13:09:10.319Z,6.70
2018-08-22T13:11:39.768Z,7.53
2018-08-22T13:14:09.469Z,5.30
2018-08-22T13:16:38.963Z,4.80
2018-08-22T13:19:08.594Z,9.87
2018-08-22T13:21:38.071Z,4.47
2018-08-22T13:24:08.010Z,5.53
2018-08-22T13:26:37.693Z,5.17
2018-08-22T13:29:07.258Z,8.47
2018-08-22T13:31:36.772Z,5.97
2018-08-22T13:34:06.752Z,7.40
2018-08-22T13:36:36.518Z,5.47
2018-08-22T13:39:08.587Z,6.33
2018-08-22T13:41:38.653Z,4.83
2018-08-22T13:44:08.769Z,5.67
2018-08-22T13:46:38.676Z,5.70
2018-08-22T13:49:08.315Z,7.43
2018-08-22T13:51:37.758Z,6.97
2018-08-22T13:54:07.407Z,10.30
2018-08-22T13:56:36.866Z,5.50
2018-08-22T13:59:06.581Z,8.60
2018-08-22T14:01:36.440Z,5.80
2018-08-22T14:04:06.125Z,5.40
2018-08-22T14:06:35.601Z,7.10
2018-08-22T14:09:06.970Z,7.13
2018-08-22T14:11:36.646Z,6.43
2018-08-22T14:14:06.219Z,10.70
2018-08-22T14:16:36.133Z,10.03
2018-08-22T14:19:06.004Z,7.60
2018-08-22T14:21:35.525Z,7.40
2018-08-22T14:24:05.131Z,12.03
2018-08-22T14:26:34.596Z,5.87
2018-08-22T14:29:04.139Z,6.07
2018-08-22T14:31:33.573Z,6.97
2018-08-22T14:34:03.082Z,6.50
2018-08-22T14:36:32.591Z,7.67
2018-08-22T14:39:02.540Z,5.40
2018-08-22T14:41:32.169Z,6.23
2018-08-22T14:44:01.665Z,9.10
2018-08-22T14:46:31.263Z,7.20
2018-08-22T14:49:00.896Z,7.40
2018-08-22T14:51:30.652Z,6.10
2018-08-22T14:54:00.621Z,5.83
2018-08-22T14:56:30.330Z,6.83
2018-08-22T14:59:00.266Z,6.53
2018-08-22T15:01:29.937Z,7.83
2018-08-22T15:03:59.689Z,5.83
2018-08-22T15:06:29.013Z,7.90
2018-08-22T15:09:04.212Z,5.63
2018-08-22T15:11:35.865Z,5.70
2018-08-22T15:14:06.411Z,5.90
2018-08-22T15:16:36.036Z,6.87
2018-08-22T15:19:05.817Z,6.20
2018-08-22T15:21:36.006Z,6.10
2018-08-22T15:24:05.602Z,6.80
2018-08-22T15:26:36.174Z,6.70
2018-08-22T15:29:06.200Z,5.70
2018-08-22T15:31:36.190Z,5.20
2018-08-22T15:34:06.183Z,4.83
2018-08-22T15:36:37.244Z,6.77
2018-08-22T15:39:09.748Z,6.07
2018-08-22T15:41:39.787Z,5.90
2018-08-22T15:44:09.472Z,6.83
2018-08-22T15:46:39.005Z,5.93
2018-08-22T15:49:08.820Z,7.57
2018-08-22T15:51:38.608Z,6.73
2018-08-22T15:54:14.188Z,6.73
2018-08-22T15:56:44.167Z,6.27
2018-08-22T15:59:14.188Z,6.13
2018-08-22T16:01:43.860Z,6.83
2018-08-22T16:04:13.441Z,5.87
2018-08-22T16:06:42.899Z,7.27
2018-08-22T16:09:17.760Z,7.70
2018-08-22T16:11:47.692Z,7.03
2018-08-22T16:14:17.509Z,5.37
2018-08-22T16:16:47.448Z,7.57
2018-08-22T16:19:17.005Z,6.33
2018-08-22T16:21:46.910Z,10.97
2018-08-22T16:24:16.605Z,9.57
2018-08-22T16:26:46.552Z,11.73
2018-08-22T16:29:16.281Z,8.37
2018-08-22T16:31:46.583Z,8.37
2018-08-22T16:34:17.065Z,8.60
2018-08-22T16:36:46.830Z,7.13
2018-08-22T16:39:21.095Z,6.73
2018-08-22T16:41:50.725Z,7.17
2018-08-22T16:44:20.811Z,6.90
2018-08-22T16:46:50.758Z,6.57
2018-08-22T16:49:20.466Z,7.93
2018-08-22T16:51:50.085Z,9.07
2018-08-22T16:54:20.012Z,10.80
2018-08-22T16:56:49.793Z,14.00
2018-08-22T16:59:20.454Z,9.23
2018-08-22T17:01:52.644Z,10.03
2018-08-22T17:04:22.317Z,8.83
2018-08-22T17:06:51.962Z,10.77
2018-08-22T17:09:21.526Z,8.27
2018-08-22T17:11:50.984Z,9.77
2018-08-22T17:14:20.424Z,7.77
2018-08-22T17:16:49.949Z,11.53
2018-08-22T17:19:19.873Z,9.43
2018-08-22T17:21:49.555Z,9.23
2018-08-22T17:24:19.092Z,9.80
2018-08-22T17:26:48.526Z,13.40
2018-08-22T17:29:19.174Z,9.07
2018-08-22T17:31:52.895Z,8.77
2018-08-22T17:34:22.473Z,13.73
2018-08-22T17:37:03.675Z,14.10
2018-08-22T17:39:33.741Z,12.90
2018-08-22T17:42:03.811Z,11.30
2018-08-22T17:44:33.392Z,13.53
2018-08-22T17:47:02.971Z,12.97
2018-08-22T17:49:32.704Z,15.13
2018-08-22T17:52:06.656Z,11.97
2018-08-22T17:54:36.478Z,15.77
2018-08-22T17:57:24.129Z,11.63
2018-08-22T17:59:54.276Z,12.27
2018-08-22T18:02:23.886Z,16.00
2018-08-22T18:04:57.339Z,12.73
2018-08-22T18:07:27.756Z,15.00
2018-08-22T18:14:52.027Z,12.87
2018-08-22T18:17:21.894Z,10.30
2018-08-22T18:19:51.509Z,18.63
2018-08-22T18:22:20.917Z,23.00
2018-08-22T18:24:56.230Z,9.67
2018-08-22T18:27:25.903Z,10.77
2018-08-22T18:29:55.548Z,10.30
2018-08-22T18:32:25.389Z,16.00
2018-08-22T18:35:08.332Z,10.80
2018-08-22T18:37:38.030Z,10.37
2018-08-22T18:40:20.566Z,10.87
2018-08-22T18:43:02.851Z,11.57
2018-08-22T18:45:32.484Z,8.97
2018-08-22T18:48:04.043Z,9.40
2018-08-22T18:50:34.641Z,11.97
2018-08-22T18:53:04.136Z,11.07
2018-08-22T18:55:34.835Z,16.50
2018-08-22T18:58:05.919Z,13.23
2018-08-22T19:00:38.144Z,11.50
2018-08-22T19:03:07.895Z,14.20
2018-08-22T19:05:38.338Z,14.43
2018-08-22T19:08:17.758Z,25.03
2018-08-22T19:10:50.284Z,25.23
2018-08-22T19:13:22.941Z,11.93
2018-08-22T19:15:56.408Z,11.90
2018-08-22T19:18:26.044Z,15.63
2018-08-22T19:20:59.275Z,9.93
2018-08-22T19:23:29.297Z,10.63
2018-08-22T19:25:59.545Z,11.93
2018-08-22T19:28:29.236Z,12.97
2018-08-22T19:30:58.706Z,11.57
2018-08-22T19:33:29.703Z,11.07
2018-08-22T19:35:59.605Z,13.27
2018-08-22T19:38:29.276Z,9.33
2018-08-22T19:41:00.981Z,16.57
2018-08-22T19:43:31.158Z,16.03
2018-08-22T19:46:00.776Z,14.33
2018-08-22T19:48:30.244Z,17.23
2018-08-22T19:50:59.932Z,13.53
2018-08-22T19:53:29.750Z,14.33
2018-08-22T19:55:59.292Z,16.30
2018-08-22T19:58:34.792Z,13.33
2018-08-22T20:01:04.548Z,15.73
2018-08-22T20:03:35.443Z,15.73
2018-08-22T20:06:05.274Z,13.37
2018-08-22T20:08:37.969Z,15.13
2018-08-22T20:11:08.236Z,12.87
2018-08-22T20:13:50.334Z,18.47
2018-08-22T20:16:21.207Z,12.20
2018-08-22T20:18:54.882Z,14.00
2018-08-22T20:21:32.326Z,15.77
2018-08-22T20:24:02.823Z,17.00
2018-08-22T20:26:32.858Z,20.47
2018-08-22T20:29:04.419Z,16.53
2018-08-22T20:31:35.875Z,17.80
2018-08-22T20:34:10.033Z,14.60
2018-08-22T20:36:39.774Z,15.97
2018-08-22T20:39:11.351Z,17.53
2018-08-22T20:41:41.474Z,14.17
2018-08-22T20:44:13.610Z,12.17
2018-08-22T20:46:44.788Z,18.37
2018-08-22T20:49:14.700Z,22.10
2018-08-22T20:51:44.624Z,24.87
2018-08-22T20:54:15.706Z,22.37
2018-08-22T20:56:50.414Z,27.17
2018-08-22T20:59:20.739Z,22.47
2018-08-22T21:01:55.711Z,16.67
2018-08-22T21:04:25.270Z,13.13
2018-08-22T21:06:54.734Z,13.23
2018-08-22T21:09:24.351Z,24.87
2018-08-22T21:11:56.855Z,18.60
2018-08-22T21:14:27.736Z,19.03
2018-08-22T21:16:57.578Z,24.63
2018-08-22T21:19:27.141Z,23.27
2018-08-22T21:21:56.521Z,25.53
2018-08-22T21:24:26.643Z,20.67
2018-08-22T21:26:56.528Z,20.07
2018-08-22T21:29:25.945Z,23.03
2018-08-22T21:31:55.704Z,20.67
2018-08-22T21:34:25.266Z,18.97
2018-08-22T21:36:55.028Z,25.63
2018-08-22T21:39:27.647Z,25.27
2018-08-22T21:41:57.683Z,26.77
2018-08-22T21:44:27.183Z,25.70
2018-08-22T21:47:02.048Z,24.13
2018-08-22T21:49:31.972Z,23.70
2018-08-22T21:52:02.137Z,22.80
2018-08-22T21:54:31.869Z,17.40
2018-08-22T21:57:01.464Z,22.23
2018-08-22T21:59:30.929Z,21.73
2018-08-22T22:02:05.782Z,26.80
2018-08-22T22:04:36.920Z,16.33
2018-08-22T22:07:08.224Z,20.30
2018-08-22T22:09:38.586Z,16.47
2018-08-22T22:12:13.482Z,25.77
2018-08-22T22:14:45.179Z,17.60
2018-08-22T22:17:14.581Z,15.20
2018-08-22T22:19:43.990Z,15.87
2018-08-22T22:22:13.667Z,14.77
2018-08-22T22:24:52.830Z,17.80
2018-08-22T22:27:22.710Z,19.20
2018-08-22T22:30:01.973Z,17.73
2018-08-22T22:32:32.080Z,12.17
2018-08-22T22:35:02.196Z,12.87
2018-08-22T22:37:31.664Z,13.60
2018-08-22T22:40:01.146Z,15.23
2018-08-22T22:42:30.666Z,16.10
2018-08-22T22:45:00.703Z,18.57
2018-08-22T22:47:33.516Z,21.03
2018-08-22T22:50:03.619Z,15.93
2018-08-22T22:52:39.292Z,19.07
2018-08-22T22:55:09.777Z,17.17
2018-08-22T22:57:40.650Z,14.07
2018-08-22T23:00:11.834Z,13.53
2018-08-22T23:02:41.587Z,15.30
2018-08-22T23:05:11.220Z,18.37
2018-08-22T23:07:41.733Z,17.77
2018-08-22T23:10:12.977Z,15.83
2018-08-22T23:12:43.372Z,15.90
2018-08-22T23:15:15.689Z,15.50
2018-08-22T23:17:47.233Z,16.57
2018-08-22T23:20:41.821Z,16.03
2018-08-22T23:23:26.490Z,19.23
2018-08-22T23:25:58.995Z,18.70
2018-08-22T23:28:28.924Z,16.67
2018-08-22T23:30:58.550Z,16.07
2018-08-22T23:33:29.043Z,20.53
2018-08-22T23:35:58.561Z,20.07
2018-08-22T23:38:30.469Z,19.10
2018-08-22T23:41:00.749Z,19.97
2018-08-22T23:43:41.349Z,17.93
2018-08-22T23:46:12.013Z,17.90
2018-08-22T23:48:42.000Z,19.70
2018-08-22T23:51:13.339Z,18.10
2018-08-22T23:53:47.551Z,16.40
2018-08-22T23:56:21.117Z,15.63
2018-08-22T23:58:51.547Z,14.33
